Terminal Aerodrome Forecast
Issued by NWS

Home | Current Version | Previous Version | Text Only | Print | Product List | Glossary On
Versions: 1 2 3 4 5 6 7 8 9 10 11 12 13 14 15
736
FTUS46 KPDT 250520
TAFALW
TAF
KALW 250520Z 2506/2606 26008G15KT P6SM FEW080 BKN100
     FM251000 17006KT P6SM SCT070 BKN090
     FM251800 16006KT P6SM BKN060 OVC080
     FM252100 VRB05KT P6SM VCSH BKN050 OVC070
     FM260300 VRB05KT P6SM SCT060 BKN110=

USA.gov is the U.S. government's official web portal to all federal, state and local government web resources and services.